Time;durP1;ratioP1;P1;durP2;ratioP2;P2;SDS_P1;SDS_P2;PMS_P1;PMS_P2;Temp;Humidity;BMP_temperature;BMP_pressure;BME280_temperature;BME280_humidity;BME280_pressure;Samples;Min_cycle;Max_cycle;Signal;HPM_P1;HPM_P2
2023/11/08 00:01:40;;;;;;;;;;;15.50;87.50;;;;;;4043260;29;19981;-49
2023/11/08 00:04:22;;;;;;;;;;;15.50;87.40;;;;;;4043518;29;20044;-46
2023/11/08 00:07:03;;;;;;;;;;;15.50;87.30;;;;;;4043619;29;19934;-43
2023/11/08 00:09:44;;;;;;;;;;;15.60;87.20;;;;;;4043744;29;19938;-44
2023/11/08 00:12:25;;;;;;;;;;;15.60;87.10;;;;;;4043345;29;20018;-44
2023/11/08 00:15:08;;;;;;;;;;;15.60;86.70;;;;;;4043238;29;19935;-44
2023/11/08 00:17:49;;;;;;;;;;;15.60;86.90;;;;;;4039758;29;19935;-44
2023/11/08 00:20:32;;;;;;;;;;;15.60;86.90;;;;;;4027823;29;19935;-44
2023/11/08 00:23:13;;;;;;;;;;;15.70;86.70;;;;;;4027777;29;19939;-45
2023/11/08 00:25:53;;;;;;;;;;;15.70;87.00;;;;;;4027722;29;19935;-43
2023/11/08 00:28:35;;;;;;;;;;;15.80;86.90;;;;;;4027536;29;20379;-46
2023/11/08 00:31:16;;;;;;;;;;;15.80;86.80;;;;;;4027552;29;19939;-46
2023/11/08 00:33:56;;;;;;;;;;;15.80;86.20;;;;;;4016205;29;19942;-44
2023/11/08 00:36:39;;;;;;;;;;;15.90;86.50;;;;;;4018713;29;19935;-44
2023/11/08 00:39:20;;;;;;;;;;;15.90;86.40;;;;;;4028015;29;19934;-44
2023/11/08 00:42:00;;;;;;;;;;;16.00;86.10;;;;;;4027500;29;19935;-45
2023/11/08 00:44:42;;;;;;;;;;;16.00;86.00;;;;;;4027135;29;19939;-53
2023/11/08 00:47:24;;;;;;;;;;;16.00;85.50;;;;;;4027228;29;19939;-53
2023/11/08 00:50:06;;;;;;;;;;;16.00;85.40;;;;;;4027718;29;19948;-54
2023/11/08 00:52:51;;;;;;;;;;;16.00;85.30;;;;;;4016391;29;19969;-49
2023/11/08 00:55:32;;;;;;;;;;;16.00;85.80;;;;;;4015927;29;20011;-50
2023/11/08 00:58:13;;;;;;;;;;;16.00;86.60;;;;;;4031137;29;20487;-51
2023/11/08 01:00:55;;;;;;;;;;;16.00;85.80;;;;;;4031091;29;19934;-51
2023/11/08 01:03:36;;;;;;;;;;;16.00;85.80;;;;;;4041969;29;19967;-49
2023/11/08 01:06:17;;;;;;;;;;;16.00;85.90;;;;;;4030674;29;19934;-52
2023/11/08 01:09:00;;;;;;;;;;;16.00;86.00;;;;;;4016089;29;19969;-52
2023/11/08 01:11:41;;;;;;;;;;;16.00;86.20;;;;;;4027722;29;20454;-52
2023/11/08 01:14:22;;;;;;;;;;;16.00;87.20;;;;;;4027072;29;19970;-51
2023/11/08 01:17:02;;;;;;;;;;;16.00;86.20;;;;;;4018867;29;20379;-44
2023/11/08 01:19:43;;;;;;;;;;;16.00;86.10;;;;;;4030060;29;19939;-45
2023/11/08 01:22:24;;;;;;;;;;;16.00;86.70;;;;;;4036003;29;19934;-45
2023/11/08 01:25:08;;;;;;;;;;;16.00;85.50;;;;;;4034468;29;19933;-46
2023/11/08 01:27:48;;;;;;;;;;;15.90;85.50;;;;;;4045623;29;19934;-45
2023/11/08 01:30:29;;;;;;;;;;;15.90;85.70;;;;;;4033927;29;19942;-46
2023/11/08 01:33:10;;;;;;;;;;;15.90;86.10;;;;;;4034275;29;19934;-46
2023/11/08 01:35:51;;;;;;;;;;;16.00;86.40;;;;;;4045922;29;19935;-45
2023/11/08 01:38:31;;;;;;;;;;;16.00;86.40;;;;;;4043753;29;20355;-45
2023/11/08 01:41:14;;;;;;;;;;;16.00;86.50;;;;;;4020988;29;19975;-46
2023/11/08 01:43:54;;;;;;;;;;;16.00;86.10;;;;;;4018199;29;19935;-44
2023/11/08 01:46:37;;;;;;;;;;;16.00;85.80;;;;;;4018933;29;19935;-46
2023/11/08 01:49:18;;;;;;;;;;;16.10;86.10;;;;;;4018997;29;19986;-44
2023/11/08 01:52:00;;;;;;;;;;;16.10;86.00;;;;;;4029753;29;19939;-49
2023/11/08 01:54:43;;;;;;;;;;;16.10;85.90;;;;;;4023497;29;20405;-45
2023/11/08 01:57:28;;;;;;;;;;;16.10;86.90;;;;;;4033770;29;19934;-48
2023/11/08 02:00:11;;;;;;;;;;;16.20;85.80;;;;;;4025909;29;19934;-45
2023/11/08 02:02:55;;;;;;;;;;;16.20;85.50;;;;;;4044218;29;19962;-49
2023/11/08 02:05:36;;;;;;;;;;;16.10;85.60;;;;;;4044839;29;19938;-46
2023/11/08 02:08:17;;;;;;;;;;;16.10;85.80;;;;;;4034840;29;20474;-46
2023/11/08 02:10:58;;;;;;;;;;;16.10;86.10;;;;;;4033745;29;20474;-47
2023/11/08 02:13:40;;;;;;;;;;;16.10;86.20;;;;;;4023144;29;19938;-46
2023/11/08 02:16:21;;;;;;;;;;;16.10;86.30;;;;;;4044167;29;20019;-45
2023/11/08 02:19:03;;;;;;;;;;;16.20;86.10;;;;;;4024224;29;19938;-44
2023/11/08 02:21:44;;;;;;;;;;;16.10;85.50;;;;;;4044462;29;19938;-45
2023/11/08 02:24:26;;;;;;;;;;;16.10;85.60;;;;;;4044929;29;19942;-44
2023/11/08 02:27:07;;;;;;;;;;;16.10;85.40;;;;;;4032116;29;19938;-44
2023/11/08 02:29:47;;;;;;;;;;;16.10;85.60;;;;;;4044686;29;19939;-62
2023/11/08 02:32:28;;;;;;;;;;;16.10;86.80;;;;;;4042526;29;20560;-54
2023/11/08 02:35:10;;;;;;;;;;;16.20;85.90;;;;;;4032119;29;20272;-52
2023/11/08 02:37:51;;;;;;;;;;;16.10;86.10;;;;;;4033312;29;20052;-46
2023/11/08 02:40:34;;;;;;;;;;;16.10;86.20;;;;;;4042701;29;20359;-53
2023/11/08 02:43:16;;;;;;;;;;;16.10;86.30;;;;;;4045046;29;19938;-53
2023/11/08 02:45:57;;;;;;;;;;;16.10;86.60;;;;;;4044281;29;19987;-51
2023/11/08 02:48:39;;;;;;;;;;;16.10;86.70;;;;;;4044487;29;20721;-50
2023/11/08 02:51:20;;;;;;;;;;;16.10;86.60;;;;;;4044976;29;19938;-52
2023/11/08 02:54:00;;;;;;;;;;;16.10;86.40;;;;;;4044538;29;19935;-49
2023/11/08 02:56:43;;;;;;;;;;;16.10;87.20;;;;;;4035094;29;20083;-54
2023/11/08 02:59:24;;;;;;;;;;;16.10;86.40;;;;;;4043887;29;19938;-55
2023/11/08 03:02:05;;;;;;;;;;;16.10;86.60;;;;;;4044708;29;19934;-51
2023/11/08 03:04:46;;;;;;;;;;;16.10;87.00;;;;;;4042706;29;20590;-52
2023/11/08 03:07:27;;;;;;;;;;;16.10;87.00;;;;;;4043011;29;19935;-52
2023/11/08 03:10:09;;;;;;;;;;;16.10;86.90;;;;;;4023267;29;19939;-53
2023/11/08 03:12:53;;;;;;;;;;;16.10;86.70;;;;;;4028995;29;19935;-53
2023/11/08 03:15:34;;;;;;;;;;;16.20;86.40;;;;;;4029131;29;19959;-54
2023/11/08 03:18:17;;;;;;;;;;;16.20;86.00;;;;;;4017426;29;19966;-51
2023/11/08 03:20:59;;;;;;;;;;;16.20;86.20;;;;;;4029797;29;19934;-53
2023/11/08 03:23:40;;;;;;;;;;;16.20;86.30;;;;;;4044403;29;20026;-51
2023/11/08 03:26:21;;;;;;;;;;;16.20;85.80;;;;;;4043982;29;19939;-52
2023/11/08 03:29:03;;;;;;;;;;;16.20;85.60;;;;;;4032795;29;20018;-52
2023/11/08 03:31:44;;;;;;;;;;;16.20;85.90;;;;;;4043289;29;19939;-43
2023/11/08 03:34:26;;;;;;;;;;;16.20;85.80;;;;;;4044374;29;19966;-52
2023/11/08 03:37:07;;;;;;;;;;;16.30;86.00;;;;;;4044138;29;20005;-49
2023/11/08 03:39:48;;;;;;;;;;;16.30;85.80;;;;;;4043326;29;20071;-52
2023/11/08 03:42:28;;;;;;;;;;;16.30;85.60;;;;;;4032481;29;20556;-53
2023/11/08 03:45:11;;;;;;;;;;;16.40;85.60;;;;;;4043873;29;19954;-55
2023/11/08 03:47:53;;;;;;;;;;;16.40;85.50;;;;;;4043743;29;20348;-51
2023/11/08 03:50:33;;;;;;;;;;;16.40;85.30;;;;;;4041786;29;20291;-44
2023/11/08 03:53:14;;;;;;;;;;;16.40;85.50;;;;;;4028208;29;19939;-47
2023/11/08 03:55:55;;;;;;;;;;;16.30;85.60;;;;;;4028408;29;20490;-44
2023/11/08 03:58:36;;;;;;;;;;;16.30;85.40;;;;;;4028338;29;19960;-45
2023/11/08 04:01:18;;;;;;;;;;;16.30;85.40;;;;;;4027689;29;19939;-50
2023/11/08 04:03:59;;;;;;;;;;;16.40;85.60;;;;;;4027346;29;19935;-44
2023/11/08 04:06:40;;;;;;;;;;;16.40;85.50;;;;;;4028591;29;19935;-47
2023/11/08 04:09:21;;;;;;;;;;;16.40;85.40;;;;;;4028305;29;19939;-44
2023/11/08 04:12:02;;;;;;;;;;;16.40;85.40;;;;;;4027877;29;19939;-44
2023/11/08 04:14:42;;;;;;;;;;;16.30;85.10;;;;;;4015946;29;20022;-44
2023/11/08 04:17:24;;;;;;;;;;;16.30;84.70;;;;;;4016560;29;20006;-43
2023/11/08 04:20:09;;;;;;;;;;;16.20;85.00;;;;;;4038052;29;19950;-44
2023/11/08 04:22:50;;;;;;;;;;;16.20;85.00;;;;;;4031121;29;20011;-45
2023/11/08 04:25:31;;;;;;;;;;;16.20;86.30;;;;;;4030721;29;19994;-47
2023/11/08 04:28:12;;;;;;;;;;;16.20;85.60;;;;;;4035153;29;20335;-50
2023/11/08 04:30:52;;;;;;;;;;;16.30;85.50;;;;;;4027179;29;20063;-46
2023/11/08 04:33:34;;;;;;;;;;;16.30;85.30;;;;;;4027308;29;20318;-44
2023/11/08 04:36:17;;;;;;;;;;;16.30;84.90;;;;;;4027582;29;19935;-46
2023/11/08 04:38:59;;;;;;;;;;;16.30;85.00;;;;;;4028023;29;19944;-45
2023/11/08 04:41:40;;;;;;;;;;;16.30;85.20;;;;;;4027476;29;20006;-46
2023/11/08 04:44:21;;;;;;;;;;;16.30;84.80;;;;;;4027220;29;19978;-45
2023/11/08 04:47:01;;;;;;;;;;;16.30;84.70;;;;;;4027246;29;19939;-44
2023/11/08 04:49:43;;;;;;;;;;;16.30;84.70;;;;;;4027261;29;19966;-44
2023/11/08 04:52:24;;;;;;;;;;;16.30;84.70;;;;;;4015537;29;20363;-46
2023/11/08 04:55:06;;;;;;;;;;;16.30;85.80;;;;;;4015801;29;20041;-46
2023/11/08 04:57:47;;;;;;;;;;;16.30;85.60;;;;;;4027185;29;19934;-44
2023/11/08 05:00:28;;;;;;;;;;;16.30;84.40;;;;;;4016160;29;19939;-46
2023/11/08 05:03:08;;;;;;;;;;;16.40;84.50;;;;;;4026587;29;19934;-46
2023/11/08 05:05:51;;;;;;;;;;;16.40;84.20;;;;;;4027159;29;19934;-46
2023/11/08 05:08:32;;;;;;;;;;;16.40;84.40;;;;;;4027073;29;20003;-49
2023/11/08 05:11:13;;;;;;;;;;;16.40;83.90;;;;;;4032107;29;19975;-45
2023/11/08 05:13:54;;;;;;;;;;;16.30;85.20;;;;;;4041509;29;20063;-55
2023/11/08 05:16:35;;;;;;;;;;;16.30;84.00;;;;;;4039896;29;19935;-53
2023/11/08 05:19:17;;;;;;;;;;;16.40;84.30;;;;;;4027467;29;19938;-47
2023/11/08 05:21:59;;;;;;;;;;;16.40;84.30;;;;;;4026952;29;20011;-44
2023/11/08 05:24:40;;;;;;;;;;;16.40;84.50;;;;;;4027020;29;19934;-46
2023/11/08 05:27:21;;;;;;;;;;;16.40;84.50;;;;;;4027166;29;19935;-44
2023/11/08 05:30:02;;;;;;;;;;;16.40;84.00;;;;;;4026554;29;19938;-44
2023/11/08 05:32:44;;;;;;;;;;;16.30;84.40;;;;;;4027076;29;19939;-46
2023/11/08 05:35:25;;;;;;;;;;;16.30;84.70;;;;;;4026934;29;20406;-45
2023/11/08 05:38:09;;;;;;;;;;;16.40;85.00;;;;;;4027476;29;19934;-43
2023/11/08 05:40:51;;;;;;;;;;;16.40;84.90;;;;;;4026360;29;20323;-45
2023/11/08 05:43:32;;;;;;;;;;;16.40;84.80;;;;;;4027207;29;19939;-48
2023/11/08 05:46:13;;;;;;;;;;;16.40;84.50;;;;;;4015227;29;19939;-44
2023/11/08 05:48:55;;;;;;;;;;;16.50;84.60;;;;;;4027506;29;19935;-55
2023/11/08 05:51:37;;;;;;;;;;;16.50;84.40;;;;;;4027192;29;19939;-50
2023/11/08 05:54:19;;;;;;;;;;;16.40;84.30;;;;;;4026325;29;20391;-51
2023/11/08 05:56:59;;;;;;;;;;;16.40;84.30;;;;;;4027003;29;19939;-53
2023/11/08 05:59:41;;;;;;;;;;;16.40;84.60;;;;;;4027393;29;19939;-56
2023/11/08 06:02:22;;;;;;;;;;;16.30;85.60;;;;;;4028566;29;20382;-52
2023/11/08 06:05:04;;;;;;;;;;;16.30;84.90;;;;;;4036520;29;20286;-53
2023/11/08 06:07:44;;;;;;;;;;;16.20;84.80;;;;;;4045315;29;20390;-54
2023/11/08 06:10:27;;;;;;;;;;;16.20;86.00;;;;;;4044894;29;20294;-52
2023/11/08 06:13:09;;;;;;;;;;;16.20;85.20;;;;;;4033191;29;19938;-55
2023/11/08 06:15:50;;;;;;;;;;;16.30;84.70;;;;;;4044923;29;19934;-55
2023/11/08 06:18:31;;;;;;;;;;;16.40;85.10;;;;;;4029200;29;19939;-54
2023/11/08 06:21:13;;;;;;;;;;;16.40;84.90;;;;;;4028476;29;19954;-51
2023/11/08 06:23:54;;;;;;;;;;;16.40;85.00;;;;;;4029812;29;19939;-55
2023/11/08 06:26:36;;;;;;;;;;;16.50;84.80;;;;;;4029549;29;19938;-56
2023/11/08 06:29:17;;;;;;;;;;;16.50;83.50;;;;;;4029665;29;20383;-53
2023/11/08 06:31:57;;;;;;;;;;;16.50;83.40;;;;;;4029410;29;20233;-43
2023/11/08 06:34:40;;;;;;;;;;;16.50;84.80;;;;;;4029516;29;19980;-46
2023/11/08 06:37:21;;;;;;;;;;;16.40;84.30;;;;;;4029475;29;20395;-45
2023/11/08 06:40:02;;;;;;;;;;;16.50;84.10;;;;;;4028534;29;19935;-48
2023/11/08 06:42:45;;;;;;;;;;;16.60;83.30;;;;;;4029004;29;20399;-44
2023/11/08 06:45:26;;;;;;;;;;;16.60;83.60;;;;;;4029304;29;19935;-44
2023/11/08 06:48:07;;;;;;;;;;;16.60;83.10;;;;;;4020225;29;20299;-46
2023/11/08 06:50:48;;;;;;;;;;;16.60;83.10;;;;;;4028419;29;19938;-47
2023/11/08 06:53:29;;;;;;;;;;;16.50;83.80;;;;;;4029323;29;20483;-45
2023/11/08 06:56:12;;;;;;;;;;;16.50;84.00;;;;;;4028890;29;19982;-45
2023/11/08 06:58:54;;;;;;;;;;;16.50;83.70;;;;;;4028620;29;19944;-44
2023/11/08 07:01:39;;;;;;;;;;;16.50;83.90;;;;;;4033534;29;20112;-44
2023/11/08 07:04:20;;;;;;;;;;;16.40;84.10;;;;;;4038164;29;19946;-43
2023/11/08 07:07:01;;;;;;;;;;;16.40;84.20;;;;;;4028088;29;19939;-44
2023/11/08 07:09:44;;;;;;;;;;;16.50;83.80;;;;;;4029110;29;19939;-44
2023/11/08 07:12:25;;;;;;;;;;;16.50;84.00;;;;;;4028960;29;20077;-44
2023/11/08 07:15:07;;;;;;;;;;;16.50;84.10;;;;;;4028338;29;20315;-48
2023/11/08 07:17:48;;;;;;;;;;;16.50;84.10;;;;;;4032709;29;19934;-52
2023/11/08 07:20:28;;;;;;;;;;;16.50;84.90;;;;;;4035071;29;19935;-50
2023/11/08 07:23:10;;;;;;;;;;;16.40;83.90;;;;;;4027604;29;19938;-52
2023/11/08 07:25:51;;;;;;;;;;;16.40;84.20;;;;;;4027060;29;20390;-51
2023/11/08 07:28:32;;;;;;;;;;;16.40;83.80;;;;;;4028460;29;19939;-46
2023/11/08 07:31:14;;;;;;;;;;;16.50;83.10;;;;;;4016742;29;19974;-47
2023/11/08 07:33:55;;;;;;;;;;;16.60;82.50;;;;;;4028379;29;20412;-52
2023/11/08 07:36:36;;;;;;;;;;;16.60;81.80;;;;;;4027903;29;19983;-48
2023/11/08 07:39:18;;;;;;;;;;;16.60;81.20;;;;;;4017120;29;20075;-48
2023/11/08 07:42:07;;;;;;;;;;;16.60;80.60;;;;;;4034767;29;20072;-46
2023/11/08 07:44:48;;;;;;;;;;;16.60;80.10;;;;;;4040477;29;19969;-47
2023/11/08 07:47:31;;;;;;;;;;;16.50;80.00;;;;;;4039686;29;19939;-48
2023/11/08 07:50:12;;;;;;;;;;;16.50;80.80;;;;;;4026418;29;19983;-48
2023/11/08 07:52:53;;;;;;;;;;;16.40;80.20;;;;;;4027128;29;20076;-48
2023/11/08 07:55:33;;;;;;;;;;;16.40;80.30;;;;;;4028240;29;20403;-48
2023/11/08 07:58:14;;;;;;;;;;;16.40;80.30;;;;;;4028351;29;19974;-51
2023/11/08 08:00:54;;;;;;;;;;;16.50;79.90;;;;;;4028655;29;19934;-49
2023/11/08 08:03:37;;;;;;;;;;;16.50;79.70;;;;;;4027291;29;20060;-47
2023/11/08 08:06:19;;;;;;;;;;;16.50;79.40;;;;;;4027971;29;20390;-47
2023/11/08 08:09:00;;;;;;;;;;;16.50;79.40;;;;;;4028888;29;19935;-48
2023/11/08 08:11:43;;;;;;;;;;;16.50;79.40;;;;;;4028093;29;19938;-48
2023/11/08 08:14:24;;;;;;;;;;;16.40;80.30;;;;;;4027988;29;19938;-47
2023/11/08 08:17:05;;;;;;;;;;;16.40;79.50;;;;;;4030730;29;19979;-47
2023/11/08 08:19:47;;;;;;;;;;;16.40;79.30;;;;;;4042775;29;20063;-47
2023/11/08 08:22:28;;;;;;;;;;;16.40;79.90;;;;;;4036621;29;19950;-51
2023/11/08 08:25:11;;;;;;;;;;;16.40;80.00;;;;;;4026056;29;19939;-50
2023/11/08 08:27:52;;;;;;;;;;;16.50;80.00;;;;;;4030606;29;19938;-50
2023/11/08 08:30:33;;;;;;;;;;;16.50;79.80;;;;;;4027557;29;19979;-47
2023/11/08 08:33:15;;;;;;;;;;;16.50;79.60;;;;;;4027371;29;20343;-50
2023/11/08 08:35:58;;;;;;;;;;;16.50;79.30;;;;;;4027098;29;19994;-50
2023/11/08 08:38:39;;;;;;;;;;;16.50;79.40;;;;;;4027579;29;19935;-53
2023/11/08 08:41:19;;;;;;;;;;;16.50;79.50;;;;;;4027249;29;19991;-51
2023/11/08 08:44:00;;;;;;;;;;;16.40;79.50;;;;;;4032310;29;19938;-49
2023/11/08 08:46:43;;;;;;;;;;;16.30;80.50;;;;;;4042785;29;19982;-48
2023/11/08 08:49:24;;;;;;;;;;;16.30;80.00;;;;;;4026844;29;19981;-47
2023/11/08 08:52:07;;;;;;;;;;;16.30;80.10;;;;;;4028995;29;19939;-46
2023/11/08 08:54:48;;;;;;;;;;;16.30;81.00;;;;;;4027163;29;20395;-47
2023/11/08 08:57:28;;;;;;;;;;;16.30;80.20;;;;;;4041944;29;19935;-45
2023/11/08 09:00:10;;;;;;;;;;;16.20;80.10;;;;;;4031012;29;19941;-46
2023/11/08 09:02:52;;;;;;;;;;;16.20;80.10;;;;;;4042710;29;19934;-46
2023/11/08 09:05:33;;;;;;;;;;;16.10;80.10;;;;;;4042308;29;19935;-48
2023/11/08 09:08:15;;;;;;;;;;;16.10;80.20;;;;;;4027022;29;19939;-47
2023/11/08 09:10:56;;;;;;;;;;;16.10;80.40;;;;;;4027250;29;20056;-44
2023/11/08 09:13:37;;;;;;;;;;;16.00;80.50;;;;;;4026825;29;19942;-45
2023/11/08 09:16:18;;;;;;;;;;;15.90;80.70;;;;;;4027255;29;20398;-47
2023/11/08 09:18:59;;;;;;;;;;;15.90;80.80;;;;;;4027260;29;19939;-47
2023/11/08 09:21:40;;;;;;;;;;;15.80;80.80;;;;;;4035773;29;19934;-50
2023/11/08 09:24:22;;;;;;;;;;;15.80;81.00;;;;;;4036229;29;19943;-46
2023/11/08 09:27:03;;;;;;;;;;;15.80;81.20;;;;;;4033398;29;19950;-51
2023/11/08 09:29:44;;;;;;;;;;;15.70;81.40;;;;;;4039773;29;19938;-49
2023/11/08 09:32:27;;;;;;;;;;;15.70;81.60;;;;;;4027170;29;20324;-48
2023/11/08 09:35:08;;;;;;;;;;;15.60;82.70;;;;;;4026776;29;19967;-48
2023/11/08 09:37:49;;;;;;;;;;;15.60;82.00;;;;;;4028217;29;19935;-49
2023/11/08 09:40:31;;;;;;;;;;;15.60;82.20;;;;;;4029349;29;19935;-45
2023/11/08 09:43:13;;;;;;;;;;;15.50;82.40;;;;;;4034671;29;19939;-46
2023/11/08 09:45:54;;;;;;;;;;;15.50;82.60;;;;;;4029865;29;19939;-47
2023/11/08 09:48:35;;;;;;;;;;;15.50;82.80;;;;;;4029793;29;19935;-47
2023/11/08 09:51:16;;;;;;;;;;;15.40;82.80;;;;;;4037424;29;19935;-46
2023/11/08 09:54:00;;;;;;;;;;;15.40;82.90;;;;;;4030612;29;19935;-46
2023/11/08 09:56:45;;;;;;;;;;;15.40;82.90;;;;;;4039136;29;20065;-47
2023/11/08 09:59:28;;;;;;;;;;;15.40;84.00;;;;;;4024100;29;20391;-48
2023/11/08 10:02:09;;;;;;;;;;;15.30;83.10;;;;;;4029518;29;20064;-49
2023/11/08 10:04:50;;;;;;;;;;;15.30;83.10;;;;;;4028882;29;19943;-45
2023/11/08 10:07:31;;;;;;;;;;;15.30;83.20;;;;;;4026411;29;19942;-45
2023/11/08 10:10:12;;;;;;;;;;;15.30;83.20;;;;;;4028769;29;20717;-47
2023/11/08 10:13:05;;;;;;;;;;;15.30;83.30;;;;;;4041766;29;19954;-48
2023/11/08 10:15:55;;;;;;;;;;;15.20;83.30;;;;;;4044124;29;20326;-48
2023/11/08 10:18:37;;;;;;;;;;;15.20;83.40;;;;;;4035527;29;19979;-45
2023/11/08 10:21:37;;;;;;;;;;;15.20;83.40;;;;;;4036545;29;20405;-47
2023/11/08 10:24:18;;;;;;;;;;;15.20;83.50;;;;;;4044416;29;19934;-48
2023/11/08 10:27:10;;;;;;;;;;;15.30;83.30;;;;;;4044517;29;19938;-50
2023/11/08 10:29:54;;;;;;;;;;;15.30;83.10;;;;;;4028833;29;19939;-47
2023/11/08 10:32:36;;;;;;;;;;;15.30;83.00;;;;;;4017166;29;19935;-50
2023/11/08 10:35:19;;;;;;;;;;;15.30;83.70;;;;;;4029031;29;19971;-49
2023/11/08 10:38:00;;;;;;;;;;;15.30;82.80;;;;;;4018321;29;19939;-48
2023/11/08 10:40:44;;;;;;;;;;;15.30;82.90;;;;;;4028594;29;19939;-50
2023/11/08 10:43:25;;;;;;;;;;;15.30;83.90;;;;;;4017672;29;19954;-51
2023/11/08 10:46:08;;;;;;;;;;;15.40;83.20;;;;;;4028174;29;19939;-49
2023/11/08 10:48:49;;;;;;;;;;;15.50;83.10;;;;;;4039734;29;20044;-48
2023/11/08 10:51:31;;;;;;;;;;;15.60;83.00;;;;;;4041917;29;20017;-48
2023/11/08 10:54:12;;;;;;;;;;;15.60;82.60;;;;;;4029684;29;19973;-48
2023/11/08 10:56:54;;;;;;;;;;;15.70;82.30;;;;;;4019760;29;19944;-49
2023/11/08 10:59:37;;;;;;;;;;;15.70;82.20;;;;;;4028387;29;19938;-49
2023/11/08 11:02:29;;;;;;;;;;;15.70;82.10;;;;;;4028131;29;19935;-50
2023/11/08 11:05:12;;;;;;;;;;;15.70;82.00;;;;;;4035463;29;20086;-48
2023/11/08 11:07:54;;;;;;;;;;;15.70;82.80;;;;;;4028919;29;19947;-48
2023/11/08 11:10:35;;;;;;;;;;;15.70;81.80;;;;;;4027996;29;20303;-48
2023/11/08 11:13:19;;;;;;;;;;;15.70;82.60;;;;;;4030073;29;19934;-49
2023/11/08 11:16:04;;;;;;;;;;;15.60;81.70;;;;;;4044236;29;19978;-48
2023/11/08 11:18:50;;;;;;;;;;;15.60;81.50;;;;;;4038463;29;20397;-49
2023/11/08 11:21:37;;;;;;;;;;;15.60;81.40;;;;;;4034160;29;19938;-48
2023/11/08 11:24:39;;;;;;;;;;;15.50;81.20;;;;;;4029769;29;19939;-49
2023/11/08 11:27:40;;;;;;;;;;;15.50;81.20;;;;;;4041700;29;19939;-48
2023/11/08 11:30:27;;;;;;;;;;;15.50;81.30;;;;;;4033585;29;20075;-47
2023/11/08 11:33:08;;;;;;;;;;;15.50;81.40;;;;;;4039712;29;19939;-49
2023/11/08 11:35:57;;;;;;;;;;;15.50;81.50;;;;;;4031707;29;19938;-48
2023/11/08 11:38:39;;;;;;;;;;;15.50;81.70;;;;;;4040281;29;19943;-48
2023/11/08 11:41:20;;;;;;;;;;;15.40;81.50;;;;;;4027757;29;19982;-51
2023/11/08 11:44:05;;;;;;;;;;;15.40;81.40;;;;;;4033145;29;20587;-51
2023/11/08 11:46:50;;;;;;;;;;;15.40;81.40;;;;;;4028720;29;19935;-48
2023/11/08 11:49:31;;;;;;;;;;;15.40;81.40;;;;;;4034725;29;20379;-49
2023/11/08 11:52:13;;;;;;;;;;;15.40;81.40;;;;;;4039755;29;20685;-49
2023/11/08 11:54:55;;;;;;;;;;;15.40;81.30;;;;;;4029302;29;20397;-50
2023/11/08 11:57:37;;;;;;;;;;;15.40;81.10;;;;;;4041067;29;19943;-50
2023/11/08 12:00:18;;;;;;;;;;;15.40;80.80;;;;;;4028048;29;19934;-50
2023/11/08 12:02:59;;;;;;;;;;;15.40;80.80;;;;;;4028168;29;19935;-47
2023/11/08 12:05:41;;;;;;;;;;;15.40;80.80;;;;;;4028984;29;19974;-48
2023/11/08 12:08:25;;;;;;;;;;;15.40;80.90;;;;;;4036063;29;20022;-49
2023/11/08 12:11:12;;;;;;;;;;;15.40;80.80;;;;;;4043266;29;20022;-48
2023/11/08 12:13:53;;;;;;;;;;;15.30;80.80;;;;;;4035755;29;19934;-48
2023/11/08 12:16:39;;;;;;;;;;;15.30;80.70;;;;;;4016038;29;19998;-47
2023/11/08 12:19:20;;;;;;;;;;;15.30;80.70;;;;;;4028255;29;19938;-52
2023/11/08 12:22:04;;;;;;;;;;;15.30;81.60;;;;;;4027377;29;19983;-51
2023/11/08 12:24:48;;;;;;;;;;;15.30;80.90;;;;;;4027094;29;19939;-48
2023/11/08 12:27:30;;;;;;;;;;;15.30;81.10;;;;;;4033771;29;19934;-47
2023/11/08 12:30:11;;;;;;;;;;;15.30;81.40;;;;;;4029448;29;19964;-50
2023/11/08 12:32:52;;;;;;;;;;;15.20;81.50;;;;;;4027308;29;19939;-48
2023/11/08 12:35:35;;;;;;;;;;;15.20;81.50;;;;;;4027002;29;20016;-45
2023/11/08 12:38:15;;;;;;;;;;;15.30;81.70;;;;;;4028060;29;19935;-49
2023/11/08 12:41:04;;;;;;;;;;;15.20;81.60;;;;;;4028456;29;19938;-48
2023/11/08 12:43:56;;;;;;;;;;;15.20;81.70;;;;;;4015948;29;20415;-49
2023/11/08 12:46:48;;;;;;;;;;;15.20;81.80;;;;;;4026324;29;19935;-50
2023/11/08 12:49:30;;;;;;;;;;;15.20;81.70;;;;;;4031504;29;19942;-48
2023/11/08 12:52:13;;;;;;;;;;;15.10;81.70;;;;;;4042827;29;19934;-50
2023/11/08 12:54:57;;;;;;;;;;;15.10;81.80;;;;;;4042724;29;19937;-48
2023/11/08 12:57:39;;;;;;;;;;;15.10;82.00;;;;;;4042831;29;20052;-47
2023/11/08 13:00:34;;;;;;;;;;;15.10;82.10;;;;;;4041118;29;20380;-51
2023/11/08 13:03:20;;;;;;;;;;;15.10;82.30;;;;;;4026975;29;19995;-49
2023/11/08 13:06:00;;;;;;;;;;;15.00;82.40;;;;;;4027679;29;19978;-50
2023/11/08 13:08:41;;;;;;;;;;;15.00;83.40;;;;;;4028154;29;20398;-52
2023/11/08 13:11:22;;;;;;;;;;;15.00;83.00;;;;;;4014770;29;20324;-51
2023/11/08 13:14:05;;;;;;;;;;;15.10;83.70;;;;;;4027252;29;19935;-46
2023/11/08 13:16:47;;;;;;;;;;;15.10;83.60;;;;;;4015908;29;20019;-46
2023/11/08 13:19:27;;;;;;;;;;;15.10;83.30;;;;;;4026889;29;20302;-46
2023/11/08 13:22:10;;;;;;;;;;;15.00;83.20;;;;;;4027356;29;19938;-47
2023/11/08 13:24:52;;;;;;;;;;;15.00;83.10;;;;;;4029878;29;19935;-47
2023/11/08 13:27:33;;;;;;;;;;;15.00;83.00;;;;;;4031571;29;19939;-46
2023/11/08 13:30:15;;;;;;;;;;;15.00;82.90;;;;;;4042588;29;20067;-47
2023/11/08 13:32:56;;;;;;;;;;;15.00;82.90;;;;;;4031196;29;19938;-46
2023/11/08 13:35:37;;;;;;;;;;;15.00;82.90;;;;;;4026844;29;19995;-47
2023/11/08 13:38:19;;;;;;;;;;;15.00;82.90;;;;;;4036587;29;20060;-46
2023/11/08 13:41:00;;;;;;;;;;;15.00;83.30;;;;;;4036612;29;19959;-45
2023/11/08 13:43:41;;;;;;;;;;;15.00;83.00;;;;;;4015294;29;19967;-45
2023/11/08 13:46:23;;;;;;;;;;;15.00;82.60;;;;;;4026673;29;19939;-48
2023/11/08 13:49:07;;;;;;;;;;;15.00;82.20;;;;;;4027210;29;19939;-46
2023/11/08 13:51:48;;;;;;;;;;;14.90;82.20;;;;;;4035469;29;19954;-48
2023/11/08 13:54:29;;;;;;;;;;;14.90;82.60;;;;;;4042157;29;20699;-46
2023/11/08 13:57:10;;;;;;;;;;;14.90;82.70;;;;;;4041913;29;19950;-50
2023/11/08 13:59:51;;;;;;;;;;;14.90;82.50;;;;;;4042198;29;19938;-49
2023/11/08 14:02:37;;;;;;;;;;;14.90;83.70;;;;;;4042362;29;19935;-47
2023/11/08 14:05:18;;;;;;;;;;;14.90;82.90;;;;;;4034469;29;19939;-50
2023/11/08 14:08:01;;;;;;;;;;;15.00;82.80;;;;;;4026642;29;19983;-46
2023/11/08 14:10:43;;;;;;;;;;;15.10;82.70;;;;;;4028989;29;20418;-50
2023/11/08 14:13:24;;;;;;;;;;;15.10;82.50;;;;;;4041775;29;19939;-50
2023/11/08 14:16:07;;;;;;;;;;;15.20;83.00;;;;;;4042323;29;19934;-49
2023/11/08 14:18:49;;;;;;;;;;;15.10;81.80;;;;;;4030119;29;19978;-51
2023/11/08 14:21:30;;;;;;;;;;;15.20;81.80;;;;;;4031567;29;19947;-49
2023/11/08 14:24:12;;;;;;;;;;;15.20;81.90;;;;;;4029204;29;19938;-46
2023/11/08 14:26:53;;;;;;;;;;;15.20;82.00;;;;;;4028945;29;19938;-49
2023/11/08 14:29:33;;;;;;;;;;;15.20;82.00;;;;;;4029618;29;19979;-49
2023/11/08 14:32:18;;;;;;;;;;;15.30;81.90;;;;;;4035378;29;19944;-51
2023/11/08 14:35:00;;;;;;;;;;;15.40;81.60;;;;;;4044458;29;19938;-52
2023/11/08 14:37:41;;;;;;;;;;;15.40;81.30;;;;;;4032712;29;19979;-53
2023/11/08 14:40:24;;;;;;;;;;;15.50;81.20;;;;;;4042406;29;19938;-51
2023/11/08 14:43:05;;;;;;;;;;;15.50;81.20;;;;;;4044784;29;19935;-50
2023/11/08 14:45:46;;;;;;;;;;;15.60;81.20;;;;;;4029405;29;20399;-53
2023/11/08 14:48:27;;;;;;;;;;;15.70;80.90;;;;;;4018271;29;19935;-49
2023/11/08 14:51:09;;;;;;;;;;;15.70;80.90;;;;;;4035725;29;19986;-49
2023/11/08 14:53:50;;;;;;;;;;;15.70;80.50;;;;;;4028799;29;20288;-49
2023/11/08 14:56:31;;;;;;;;;;;15.80;80.40;;;;;;4028263;29;19935;-49
2023/11/08 14:59:12;;;;;;;;;;;15.70;80.20;;;;;;4028598;29;20403;-50
2023/11/08 15:01:55;;;;;;;;;;;15.80;80.50;;;;;;4032477;29;19951;-49
2023/11/08 15:04:36;;;;;;;;;;;15.80;80.50;;;;;;4031957;29;20332;-49
2023/11/08 15:07:18;;;;;;;;;;;15.80;80.60;;;;;;4043925;29;20051;-52
2023/11/08 15:10:20;;;;;;;;;;;15.80;80.40;;;;;;4042782;29;20378;-51
2023/11/08 15:13:01;;;;;;;;;;;15.80;80.30;;;;;;4029456;29;19935;-52
2023/11/08 15:15:42;;;;;;;;;;;15.80;80.30;;;;;;4029265;29;19950;-50
2023/11/08 15:18:24;;;;;;;;;;;15.80;80.60;;;;;;4028673;29;19939;-49
2023/11/08 15:21:05;;;;;;;;;;;15.90;80.30;;;;;;4029039;29;19938;-49
2023/11/08 15:23:52;;;;;;;;;;;15.90;80.10;;;;;;4028583;29;19939;-49
2023/11/08 15:26:33;;;;;;;;;;;15.80;80.10;;;;;;4035874;29;19935;-48
2023/11/08 15:29:14;;;;;;;;;;;15.80;80.30;;;;;;4028581;29;19938;-51
2023/11/08 15:31:55;;;;;;;;;;;15.80;80.50;;;;;;4027602;29;19935;-48
2023/11/08 15:34:36;;;;;;;;;;;15.80;80.70;;;;;;4042146;29;19933;-45
2023/11/08 15:37:16;;;;;;;;;;;15.80;80.90;;;;;;4032350;29;19953;-47
2023/11/08 15:39:59;;;;;;;;;;;15.80;81.60;;;;;;4043712;29;20083;-47
2023/11/08 15:42:40;;;;;;;;;;;15.80;80.70;;;;;;4041941;29;20284;-47